sensor_id;sensor_type;location;lat;lon;timestamp;temperature;humidity
15717;DHT22;7960;50.908;4.204;2023-07-28T00:01:45;17.60;99.90
15717;DHT22;7960;50.908;4.204;2023-07-28T00:04:12;17.70;99.90
15717;DHT22;7960;50.908;4.204;2023-07-28T00:06:39;17.60;99.90
15717;DHT22;7960;50.908;4.204;2023-07-28T00:09:06;17.60;99.90
15717;DHT22;7960;50.908;4.204;2023-07-28T00:11:33;17.60;99.90
15717;DHT22;7960;50.908;4.204;2023-07-28T00:13:59;17.60;99.90
15717;DHT22;7960;50.908;4.204;2023-07-28T00:16:26;17.70;99.90
15717;DHT22;7960;50.908;4.204;2023-07-28T00:18:54;17.70;99.90
15717;DHT22;7960;50.908;4.204;2023-07-28T00:21:21;17.70;99.90
15717;DHT22;7960;50.908;4.204;2023-07-28T00:23:47;17.70;99.90
15717;DHT22;7960;50.908;4.204;2023-07-28T00:26:14;17.70;99.90
15717;DHT22;7960;50.908;4.204;2023-07-28T00:28:41;17.70;99.90
15717;DHT22;7960;50.908;4.204;2023-07-28T00:31:08;17.70;99.90
15717;DHT22;7960;50.908;4.204;2023-07-28T00:33:34;17.70;99.90
15717;DHT22;7960;50.908;4.204;2023-07-28T00:36:03;17.70;99.90
15717;DHT22;7960;50.908;4.204;2023-07-28T00:38:30;17.70;99.90
15717;DHT22;7960;50.908;4.204;2023-07-28T00:40:57;17.70;99.90
15717;DHT22;7960;50.908;4.204;2023-07-28T00:43:24;17.70;99.90
15717;DHT22;7960;50.908;4.204;2023-07-28T00:45:51;17.70;99.90
15717;DHT22;7960;50.908;4.204;2023-07-28T00:48:18;17.70;99.90
15717;DHT22;7960;50.908;4.204;2023-07-28T00:50:47;17.70;99.90
15717;DHT22;7960;50.908;4.204;2023-07-28T00:53:16;17.70;99.90
15717;DHT22;7960;50.908;4.204;2023-07-28T00:55:43;17.70;99.90
15717;DHT22;7960;50.908;4.204;2023-07-28T00:58:10;17.70;99.90
15717;DHT22;7960;50.908;4.204;2023-07-28T01:00:36;17.70;99.90
15717;DHT22;7960;50.908;4.204;2023-07-28T01:03:03;17.70;99.90
15717;DHT22;7960;50.908;4.204;2023-07-28T01:05:36;17.70;99.90
15717;DHT22;7960;50.908;4.204;2023-07-28T01:08:09;17.70;99.90
15717;DHT22;7960;50.908;4.204;2023-07-28T01:10:39;17.70;99.90
15717;DHT22;7960;50.908;4.204;2023-07-28T01:13:06;17.70;99.90
15717;DHT22;7960;50.908;4.204;2023-07-28T01:15:33;17.70;99.90
15717;DHT22;7960;50.908;4.204;2023-07-28T01:18:00;17.70;99.90
15717;DHT22;7960;50.908;4.204;2023-07-28T01:20:30;17.70;99.90
15717;DHT22;7960;50.908;4.204;2023-07-28T01:23:16;17.70;99.90
15717;DHT22;7960;50.908;4.204;2023-07-28T01:25:55;17.70;99.90
15717;DHT22;7960;50.908;4.204;2023-07-28T01:28:27;17.70;99.90
15717;DHT22;7960;50.908;4.204;2023-07-28T01:30:56;17.70;99.90
15717;DHT22;7960;50.908;4.204;2023-07-28T01:33:22;17.80;99.90
15717;DHT22;7960;50.908;4.204;2023-07-28T01:35:49;17.70;99.90
15717;DHT22;7960;50.908;4.204;2023-07-28T01:38:16;17.70;99.90
15717;DHT22;7960;50.908;4.204;2023-07-28T01:40:43;17.70;99.90
15717;DHT22;7960;50.908;4.204;2023-07-28T01:43:10;17.70;99.90
15717;DHT22;7960;50.908;4.204;2023-07-28T01:45:38;17.80;99.90
15717;DHT22;7960;50.908;4.204;2023-07-28T01:48:05;17.70;99.90
15717;DHT22;7960;50.908;4.204;2023-07-28T01:50:34;17.70;99.90
15717;DHT22;7960;50.908;4.204;2023-07-28T01:53:01;17.70;99.90
15717;DHT22;7960;50.908;4.204;2023-07-28T01:55:28;17.70;99.90
15717;DHT22;7960;50.908;4.204;2023-07-28T01:57:56;17.70;99.90
15717;DHT22;7960;50.908;4.204;2023-07-28T02:00:23;17.80;99.90
15717;DHT22;7960;50.908;4.204;2023-07-28T02:02:52;17.80;99.90
15717;DHT22;7960;50.908;4.204;2023-07-28T02:05:19;17.80;99.90
15717;DHT22;7960;50.908;4.204;2023-07-28T02:07:46;17.80;99.90
15717;DHT22;7960;50.908;4.204;2023-07-28T02:10:13;17.80;99.90
15717;DHT22;7960;50.908;4.204;2023-07-28T02:12:40;17.80;99.90
15717;DHT22;7960;50.908;4.204;2023-07-28T02:15:08;17.80;99.90
15717;DHT22;7960;50.908;4.204;2023-07-28T02:17:35;17.80;99.90
15717;DHT22;7960;50.908;4.204;2023-07-28T02:20:04;17.70;99.90
15717;DHT22;7960;50.908;4.204;2023-07-28T02:22:31;17.70;99.90
15717;DHT22;7960;50.908;4.204;2023-07-28T02:24:58;17.80;99.90
15717;DHT22;7960;50.908;4.204;2023-07-28T02:27:27;17.80;99.90
15717;DHT22;7960;50.908;4.204;2023-07-28T02:29:54;17.80;99.90
15717;DHT22;7960;50.908;4.204;2023-07-28T02:32:21;17.70;99.90
15717;DHT22;7960;50.908;4.204;2023-07-28T02:34:48;17.80;99.90
15717;DHT22;7960;50.908;4.204;2023-07-28T02:37:16;17.80;99.90
15717;DHT22;7960;50.908;4.204;2023-07-28T02:39:43;17.80;99.90
15717;DHT22;7960;50.908;4.204;2023-07-28T02:42:11;17.80;99.90
15717;DHT22;7960;50.908;4.204;2023-07-28T02:44:37;17.80;99.90
15717;DHT22;7960;50.908;4.204;2023-07-28T02:47:05;17.70;99.90
15717;DHT22;7960;50.908;4.204;2023-07-28T02:49:32;17.80;99.90
15717;DHT22;7960;50.908;4.204;2023-07-28T02:51:59;17.80;99.90
15717;DHT22;7960;50.908;4.204;2023-07-28T02:54:27;17.80;99.90
15717;DHT22;7960;50.908;4.204;2023-07-28T02:56:54;17.80;99.90
15717;DHT22;7960;50.908;4.204;2023-07-28T02:59:21;17.80;99.90
15717;DHT22;7960;50.908;4.204;2023-07-28T03:01:48;17.80;99.90
15717;DHT22;7960;50.908;4.204;2023-07-28T03:04:17;17.80;99.90
15717;DHT22;7960;50.908;4.204;2023-07-28T03:06:45;17.80;99.90
15717;DHT22;7960;50.908;4.204;2023-07-28T03:09:12;17.80;99.90
15717;DHT22;7960;50.908;4.204;2023-07-28T03:11:42;17.80;99.90
15717;DHT22;7960;50.908;4.204;2023-07-28T03:14:09;17.80;99.90
15717;DHT22;7960;50.908;4.204;2023-07-28T03:16:35;17.80;99.90
15717;DHT22;7960;50.908;4.204;2023-07-28T03:19:03;17.80;99.90
15717;DHT22;7960;50.908;4.204;2023-07-28T03:21:30;17.70;99.90
15717;DHT22;7960;50.908;4.204;2023-07-28T03:23:57;17.80;99.90
15717;DHT22;7960;50.908;4.204;2023-07-28T03:26:24;17.80;99.90
15717;DHT22;7960;50.908;4.204;2023-07-28T03:28:52;17.80;99.90
15717;DHT22;7960;50.908;4.204;2023-07-28T03:31:19;17.80;99.90
15717;DHT22;7960;50.908;4.204;2023-07-28T03:33:46;17.80;99.90
15717;DHT22;7960;50.908;4.204;2023-07-28T03:36:13;17.80;99.90
15717;DHT22;7960;50.908;4.204;2023-07-28T03:38:40;17.80;99.90
15717;DHT22;7960;50.908;4.204;2023-07-28T03:41:06;17.80;99.90
15717;DHT22;7960;50.908;4.204;2023-07-28T03:43:33;17.80;99.90
15717;DHT22;7960;50.908;4.204;2023-07-28T03:46:02;17.70;99.90
15717;DHT22;7960;50.908;4.204;2023-07-28T03:48:28;17.80;99.90
15717;DHT22;7960;50.908;4.204;2023-07-28T03:50:55;17.80;99.90
15717;DHT22;7960;50.908;4.204;2023-07-28T03:53:22;17.80;99.90
15717;DHT22;7960;50.908;4.204;2023-07-28T03:55:49;17.80;99.90
15717;DHT22;7960;50.908;4.204;2023-07-28T03:58:16;17.80;99.90
15717;DHT22;7960;50.908;4.204;2023-07-28T04:00:43;17.70;99.90
15717;DHT22;7960;50.908;4.204;2023-07-28T04:03:11;17.80;99.90
15717;DHT22;7960;50.908;4.204;2023-07-28T04:05:38;17.80;99.90
15717;DHT22;7960;50.908;4.204;2023-07-28T04:08:05;17.80;99.90
15717;DHT22;7960;50.908;4.204;2023-07-28T04:10:32;17.80;99.90
15717;DHT22;7960;50.908;4.204;2023-07-28T04:12:59;17.80;99.90
15717;DHT22;7960;50.908;4.204;2023-07-28T04:15:25;17.80;99.90
15717;DHT22;7960;50.908;4.204;2023-07-28T04:17:52;17.80;99.90
15717;DHT22;7960;50.908;4.204;2023-07-28T04:20:20;17.80;99.90
15717;DHT22;7960;50.908;4.204;2023-07-28T04:22:47;17.80;99.90
15717;DHT22;7960;50.908;4.204;2023-07-28T04:25:14;17.80;99.90
15717;DHT22;7960;50.908;4.204;2023-07-28T04:27:41;17.90;99.90
15717;DHT22;7960;50.908;4.204;2023-07-28T04:30:08;17.90;99.90
15717;DHT22;7960;50.908;4.204;2023-07-28T04:32:35;17.80;99.90
15717;DHT22;7960;50.908;4.204;2023-07-28T04:35:02;17.90;99.90
15717;DHT22;7960;50.908;4.204;2023-07-28T04:37:32;17.90;99.90
15717;DHT22;7960;50.908;4.204;2023-07-28T04:39:59;17.80;99.90
15717;DHT22;7960;50.908;4.204;2023-07-28T04:42:25;17.90;99.90
15717;DHT22;7960;50.908;4.204;2023-07-28T04:44:52;17.90;99.90
15717;DHT22;7960;50.908;4.204;2023-07-28T04:47:19;17.90;99.90
15717;DHT22;7960;50.908;4.204;2023-07-28T04:49:46;17.90;99.90
15717;DHT22;7960;50.908;4.204;2023-07-28T04:52:12;17.90;99.90
15717;DHT22;7960;50.908;4.204;2023-07-28T04:54:41;17.90;99.90
15717;DHT22;7960;50.908;4.204;2023-07-28T04:57:08;17.90;99.90
15717;DHT22;7960;50.908;4.204;2023-07-28T04:59:34;17.90;99.90
15717;DHT22;7960;50.908;4.204;2023-07-28T05:02:01;17.90;99.90
15717;DHT22;7960;50.908;4.204;2023-07-28T05:04:28;17.90;99.90
15717;DHT22;7960;50.908;4.204;2023-07-28T05:06:55;17.90;99.90
15717;DHT22;7960;50.908;4.204;2023-07-28T05:09:22;17.90;99.90
15717;DHT22;7960;50.908;4.204;2023-07-28T05:11:50;17.90;99.90
15717;DHT22;7960;50.908;4.204;2023-07-28T05:14:17;17.90;99.90
15717;DHT22;7960;50.908;4.204;2023-07-28T05:16:43;17.90;99.90
15717;DHT22;7960;50.908;4.204;2023-07-28T05:19:11;18.00;99.90
15717;DHT22;7960;50.908;4.204;2023-07-28T05:21:38;17.90;99.90
15717;DHT22;7960;50.908;4.204;2023-07-28T05:24:05;17.90;99.90
15717;DHT22;7960;50.908;4.204;2023-07-28T05:26:32;18.00;99.90
15717;DHT22;7960;50.908;4.204;2023-07-28T05:29:00;17.90;99.90
15717;DHT22;7960;50.908;4.204;2023-07-28T05:31:27;18.00;99.90
15717;DHT22;7960;50.908;4.204;2023-07-28T05:33:54;17.90;99.90
15717;DHT22;7960;50.908;4.204;2023-07-28T05:36:20;17.90;99.90
15717;DHT22;7960;50.908;4.204;2023-07-28T05:38:47;17.90;99.90
15717;DHT22;7960;50.908;4.204;2023-07-28T05:41:15;17.90;99.90
15717;DHT22;7960;50.908;4.204;2023-07-28T05:43:42;17.90;99.90
15717;DHT22;7960;50.908;4.204;2023-07-28T05:46:10;17.90;99.90
15717;DHT22;7960;50.908;4.204;2023-07-28T05:48:37;18.00;99.90
15717;DHT22;7960;50.908;4.204;2023-07-28T05:51:04;18.00;99.90
15717;DHT22;7960;50.908;4.204;2023-07-28T05:53:31;18.00;99.90
15717;DHT22;7960;50.908;4.204;2023-07-28T05:55:58;18.10;99.90
15717;DHT22;7960;50.908;4.204;2023-07-28T05:58:25;18.10;99.90
15717;DHT22;7960;50.908;4.204;2023-07-28T06:00:51;18.10;99.90
15717;DHT22;7960;50.908;4.204;2023-07-28T06:03:20;18.10;99.90
15717;DHT22;7960;50.908;4.204;2023-07-28T06:05:46;18.10;99.90
15717;DHT22;7960;50.908;4.204;2023-07-28T06:08:13;18.10;99.90
15717;DHT22;7960;50.908;4.204;2023-07-28T06:10:40;18.20;99.90
15717;DHT22;7960;50.908;4.204;2023-07-28T06:13:07;18.20;99.90
15717;DHT22;7960;50.908;4.204;2023-07-28T06:15:34;18.20;99.90
15717;DHT22;7960;50.908;4.204;2023-07-28T06:18:02;18.20;99.90
15717;DHT22;7960;50.908;4.204;2023-07-28T06:20:30;18.20;99.90
15717;DHT22;7960;50.908;4.204;2023-07-28T06:22:57;18.20;99.90
15717;DHT22;7960;50.908;4.204;2023-07-28T06:25:23;18.20;99.90
15717;DHT22;7960;50.908;4.204;2023-07-28T06:27:51;18.30;99.90
15717;DHT22;7960;50.908;4.204;2023-07-28T06:30:18;18.20;99.90
15717;DHT22;7960;50.908;4.204;2023-07-28T06:32:45;18.20;99.90
15717;DHT22;7960;50.908;4.204;2023-07-28T06:35:11;18.20;99.90
15717;DHT22;7960;50.908;4.204;2023-07-28T06:37:40;18.30;99.90
15717;DHT22;7960;50.908;4.204;2023-07-28T06:40:08;18.30;99.90
15717;DHT22;7960;50.908;4.204;2023-07-28T06:42:35;18.30;99.90
15717;DHT22;7960;50.908;4.204;2023-07-28T06:45:03;18.30;99.90
15717;DHT22;7960;50.908;4.204;2023-07-28T06:47:30;18.40;99.90
15717;DHT22;7960;50.908;4.204;2023-07-28T06:49:57;18.30;99.90
15717;DHT22;7960;50.908;4.204;2023-07-28T06:52:24;18.30;99.90
15717;DHT22;7960;50.908;4.204;2023-07-28T06:54:52;18.40;99.90
15717;DHT22;7960;50.908;4.204;2023-07-28T06:57:20;18.50;99.90
15717;DHT22;7960;50.908;4.204;2023-07-28T06:59:47;18.50;99.90
15717;DHT22;7960;50.908;4.204;2023-07-28T07:02:14;18.50;99.90
15717;DHT22;7960;50.908;4.204;2023-07-28T07:04:41;18.50;99.90
15717;DHT22;7960;50.908;4.204;2023-07-28T07:07:08;18.50;99.90
15717;DHT22;7960;50.908;4.204;2023-07-28T07:09:35;18.60;99.90
15717;DHT22;7960;50.908;4.204;2023-07-28T07:12:03;18.60;99.90
15717;DHT22;7960;50.908;4.204;2023-07-28T07:14:31;18.60;99.90
15717;DHT22;7960;50.908;4.204;2023-07-28T07:16:59;18.70;99.90
15717;DHT22;7960;50.908;4.204;2023-07-28T07:19:27;18.70;99.90
15717;DHT22;7960;50.908;4.204;2023-07-28T07:21:54;18.80;99.90
15717;DHT22;7960;50.908;4.204;2023-07-28T07:24:21;18.90;99.90
15717;DHT22;7960;50.908;4.204;2023-07-28T07:26:48;18.90;99.90
15717;DHT22;7960;50.908;4.204;2023-07-28T07:29:17;18.90;99.90
15717;DHT22;7960;50.908;4.204;2023-07-28T07:31:44;19.00;99.90
15717;DHT22;7960;50.908;4.204;2023-07-28T07:34:11;19.10;99.90
15717;DHT22;7960;50.908;4.204;2023-07-28T07:36:38;19.10;99.90
15717;DHT22;7960;50.908;4.204;2023-07-28T07:39:05;19.20;99.90
15717;DHT22;7960;50.908;4.204;2023-07-28T07:41:33;19.20;99.90
15717;DHT22;7960;50.908;4.204;2023-07-28T07:44:00;19.30;99.90
15717;DHT22;7960;50.908;4.204;2023-07-28T07:46:29;19.20;99.90
15717;DHT22;7960;50.908;4.204;2023-07-28T07:48:56;19.20;99.90
15717;DHT22;7960;50.908;4.204;2023-07-28T07:51:23;19.20;99.90
15717;DHT22;7960;50.908;4.204;2023-07-28T07:53:49;19.30;99.90
15717;DHT22;7960;50.908;4.204;2023-07-28T07:56:16;19.40;99.90
15717;DHT22;7960;50.908;4.204;2023-07-28T07:58:43;19.40;99.90
15717;DHT22;7960;50.908;4.204;2023-07-28T08:01:10;19.40;99.90
15717;DHT22;7960;50.908;4.204;2023-07-28T08:03:39;19.40;99.90
15717;DHT22;7960;50.908;4.204;2023-07-28T08:06:05;19.40;99.90
15717;DHT22;7960;50.908;4.204;2023-07-28T08:08:33;19.40;99.90
15717;DHT22;7960;50.908;4.204;2023-07-28T08:11:00;19.40;99.90
15717;DHT22;7960;50.908;4.204;2023-07-28T08:13:27;19.40;99.90
15717;DHT22;7960;50.908;4.204;2023-07-28T08:15:54;19.40;99.90
15717;DHT22;7960;50.908;4.204;2023-07-28T08:18:21;19.40;99.90
15717;DHT22;7960;50.908;4.204;2023-07-28T08:20:49;19.40;99.90
15717;DHT22;7960;50.908;4.204;2023-07-28T08:23:16;19.40;99.90
15717;DHT22;7960;50.908;4.204;2023-07-28T08:25:43;19.40;99.90
15717;DHT22;7960;50.908;4.204;2023-07-28T08:28:10;19.30;99.90
15717;DHT22;7960;50.908;4.204;2023-07-28T08:30:37;19.40;99.90
15717;DHT22;7960;50.908;4.204;2023-07-28T08:33:03;19.30;99.90
15717;DHT22;7960;50.908;4.204;2023-07-28T08:35:30;19.30;99.90
15717;DHT22;7960;50.908;4.204;2023-07-28T08:37:58;19.30;99.90
15717;DHT22;7960;50.908;4.204;2023-07-28T08:40:26;19.30;99.90
15717;DHT22;7960;50.908;4.204;2023-07-28T08:42:54;19.30;99.90
15717;DHT22;7960;50.908;4.204;2023-07-28T08:45:21;19.30;99.90
15717;DHT22;7960;50.908;4.204;2023-07-28T08:47:49;19.20;99.90
15717;DHT22;7960;50.908;4.204;2023-07-28T08:50:16;19.20;99.90
15717;DHT22;7960;50.908;4.204;2023-07-28T08:52:43;19.20;99.90
15717;DHT22;7960;50.908;4.204;2023-07-28T08:55:12;19.20;99.90
15717;DHT22;7960;50.908;4.204;2023-07-28T08:57:39;19.20;99.90
15717;DHT22;7960;50.908;4.204;2023-07-28T09:00:09;19.10;99.90
15717;DHT22;7960;50.908;4.204;2023-07-28T09:02:38;19.20;99.90
15717;DHT22;7960;50.908;4.204;2023-07-28T09:05:06;19.30;99.90
15717;DHT22;7960;50.908;4.204;2023-07-28T09:07:36;19.30;99.90
15717;DHT22;7960;50.908;4.204;2023-07-28T09:10:03;19.50;99.90
15717;DHT22;7960;50.908;4.204;2023-07-28T09:12:33;19.60;99.90
15717;DHT22;7960;50.908;4.204;2023-07-28T09:15:00;19.60;99.90
15717;DHT22;7960;50.908;4.204;2023-07-28T09:17:27;19.70;99.90
15717;DHT22;7960;50.908;4.204;2023-07-28T09:19:58;19.80;99.90
15717;DHT22;7960;50.908;4.204;2023-07-28T09:22:25;19.90;99.90
15717;DHT22;7960;50.908;4.204;2023-07-28T09:24:52;19.90;99.90
15717;DHT22;7960;50.908;4.204;2023-07-28T09:27:20;19.80;99.90
15717;DHT22;7960;50.908;4.204;2023-07-28T09:29:49;19.80;99.90
15717;DHT22;7960;50.908;4.204;2023-07-28T09:32:26;19.70;99.90
15717;DHT22;7960;50.908;4.204;2023-07-28T09:35:05;19.70;99.90
15717;DHT22;7960;50.908;4.204;2023-07-28T09:37:35;19.80;99.90
15717;DHT22;7960;50.908;4.204;2023-07-28T09:40:04;19.80;99.90
15717;DHT22;7960;50.908;4.204;2023-07-28T09:42:32;19.90;99.90
15717;DHT22;7960;50.908;4.204;2023-07-28T09:45:01;19.80;99.90
15717;DHT22;7960;50.908;4.204;2023-07-28T09:47:30;19.70;99.90
15717;DHT22;7960;50.908;4.204;2023-07-28T09:50:02;19.70;99.90
15717;DHT22;7960;50.908;4.204;2023-07-28T09:52:33;19.80;99.90
15717;DHT22;7960;50.908;4.204;2023-07-28T09:55:05;19.90;99.90
15717;DHT22;7960;50.908;4.204;2023-07-28T09:57:36;19.90;99.90
15717;DHT22;7960;50.908;4.204;2023-07-28T10:00:07;19.90;99.90
15717;DHT22;7960;50.908;4.204;2023-07-28T10:02:36;20.00;99.90
15717;DHT22;7960;50.908;4.204;2023-07-28T10:05:05;20.00;99.90
15717;DHT22;7960;50.908;4.204;2023-07-28T10:07:33;20.00;99.90
15717;DHT22;7960;50.908;4.204;2023-07-28T10:10:03;20.00;99.90
15717;DHT22;7960;50.908;4.204;2023-07-28T10:12:40;19.90;99.90
15717;DHT22;7960;50.908;4.204;2023-07-28T10:15:13;20.00;99.90
15717;DHT22;7960;50.908;4.204;2023-07-28T10:17:46;20.00;99.90
15717;DHT22;7960;50.908;4.204;2023-07-28T10:20:30;20.10;99.90
15717;DHT22;7960;50.908;4.204;2023-07-28T10:23:07;20.20;99.90
15717;DHT22;7960;50.908;4.204;2023-07-28T10:25:38;20.30;99.90
15717;DHT22;7960;50.908;4.204;2023-07-28T10:28:07;20.30;99.90
15717;DHT22;7960;50.908;4.204;2023-07-28T10:30:37;20.40;99.90
15717;DHT22;7960;50.908;4.204;2023-07-28T10:33:05;20.40;99.90
15717;DHT22;7960;50.908;4.204;2023-07-28T10:35:32;20.50;99.90
15717;DHT22;7960;50.908;4.204;2023-07-28T10:38:30;20.60;99.90
15717;DHT22;7960;50.908;4.204;2023-07-28T10:41:08;20.60;99.90
15717;DHT22;7960;50.908;4.204;2023-07-28T10:43:36;20.70;99.90
15717;DHT22;7960;50.908;4.204;2023-07-28T10:46:08;20.80;99.90
15717;DHT22;7960;50.908;4.204;2023-07-28T10:48:36;20.90;99.90
15717;DHT22;7960;50.908;4.204;2023-07-28T10:51:03;20.90;99.90
15717;DHT22;7960;50.908;4.204;2023-07-28T10:53:31;20.90;99.90
15717;DHT22;7960;50.908;4.204;2023-07-28T10:55:59;21.00;99.90
15717;DHT22;7960;50.908;4.204;2023-07-28T10:58:26;21.00;99.90
15717;DHT22;7960;50.908;4.204;2023-07-28T11:00:53;21.10;99.90
15717;DHT22;7960;50.908;4.204;2023-07-28T11:03:22;21.10;99.90
15717;DHT22;7960;50.908;4.204;2023-07-28T11:05:49;21.00;99.90
15717;DHT22;7960;50.908;4.204;2023-07-28T11:08:17;21.00;99.90
15717;DHT22;7960;50.908;4.204;2023-07-28T11:10:44;21.10;99.90
15717;DHT22;7960;50.908;4.204;2023-07-28T11:13:12;21.00;99.90
15717;DHT22;7960;50.908;4.204;2023-07-28T11:15:39;21.10;99.90
15717;DHT22;7960;50.908;4.204;2023-07-28T11:18:06;21.30;99.90
15717;DHT22;7960;50.908;4.204;2023-07-28T11:20:36;21.50;99.90
15717;DHT22;7960;50.908;4.204;2023-07-28T11:23:04;21.80;99.90
15717;DHT22;7960;50.908;4.204;2023-07-28T11:25:33;21.80;99.90
15717;DHT22;7960;50.908;4.204;2023-07-28T11:28:02;21.90;99.90
15717;DHT22;7960;50.908;4.204;2023-07-28T11:30:31;21.90;99.90
15717;DHT22;7960;50.908;4.204;2023-07-28T11:32:59;22.00;99.90
15717;DHT22;7960;50.908;4.204;2023-07-28T11:35:26;22.10;99.90
15717;DHT22;7960;50.908;4.204;2023-07-28T11:37:57;22.30;99.90
15717;DHT22;7960;50.908;4.204;2023-07-28T11:40:24;22.30;99.90
15717;DHT22;7960;50.908;4.204;2023-07-28T11:42:53;22.20;99.90
15717;DHT22;7960;50.908;4.204;2023-07-28T11:45:22;22.10;99.90
15717;DHT22;7960;50.908;4.204;2023-07-28T11:47:55;22.00;99.90
15717;DHT22;7960;50.908;4.204;2023-07-28T11:50:23;22.00;99.90
15717;DHT22;7960;50.908;4.204;2023-07-28T11:52:49;22.00;99.90
15717;DHT22;7960;50.908;4.204;2023-07-28T11:55:18;22.20;99.90
15717;DHT22;7960;50.908;4.204;2023-07-28T11:57:46;22.40;99.90
15717;DHT22;7960;50.908;4.204;2023-07-28T12:00:14;22.50;99.90
15717;DHT22;7960;50.908;4.204;2023-07-28T12:02:43;22.70;99.90
15717;DHT22;7960;50.908;4.204;2023-07-28T12:05:13;22.90;99.90
15717;DHT22;7960;50.908;4.204;2023-07-28T12:07:40;23.10;99.90
15717;DHT22;7960;50.908;4.204;2023-07-28T12:10:08;23.30;99.90
15717;DHT22;7960;50.908;4.204;2023-07-28T12:12:46;23.30;99.90
15717;DHT22;7960;50.908;4.204;2023-07-28T12:15:20;23.20;99.90
15717;DHT22;7960;50.908;4.204;2023-07-28T12:18:11;23.20;99.90
15717;DHT22;7960;50.908;4.204;2023-07-28T12:20:39;23.30;99.90
15717;DHT22;7960;50.908;4.204;2023-07-28T12:23:08;23.40;99.90
15717;DHT22;7960;50.908;4.204;2023-07-28T12:25:36;23.40;99.90
15717;DHT22;7960;50.908;4.204;2023-07-28T12:28:05;23.30;99.90
15717;DHT22;7960;50.908;4.204;2023-07-28T12:30:32;23.50;99.90
15717;DHT22;7960;50.908;4.204;2023-07-28T12:32:59;23.80;99.90
15717;DHT22;7960;50.908;4.204;2023-07-28T12:35:27;23.60;99.90
15717;DHT22;7960;50.908;4.204;2023-07-28T12:37:57;23.40;99.90
15717;DHT22;7960;50.908;4.204;2023-07-28T12:40:26;23.30;99.90
15717;DHT22;7960;50.908;4.204;2023-07-28T12:42:53;23.20;99.90
15717;DHT22;7960;50.908;4.204;2023-07-28T12:45:21;23.20;99.90
15717;DHT22;7960;50.908;4.204;2023-07-28T12:47:51;23.20;99.90
15717;DHT22;7960;50.908;4.204;2023-07-28T12:50:18;23.20;99.90
15717;DHT22;7960;50.908;4.204;2023-07-28T12:52:46;23.40;99.90
15717;DHT22;7960;50.908;4.204;2023-07-28T12:55:13;23.70;99.90
15717;DHT22;7960;50.908;4.204;2023-07-28T12:57:40;23.60;99.90
15717;DHT22;7960;50.908;4.204;2023-07-28T13:00:08;23.60;99.90
15717;DHT22;7960;50.908;4.204;2023-07-28T13:02:40;23.80;99.90
15717;DHT22;7960;50.908;4.204;2023-07-28T13:05:08;24.10;99.90
15717;DHT22;7960;50.908;4.204;2023-07-28T13:07:36;24.40;99.90
15717;DHT22;7960;50.908;4.204;2023-07-28T13:10:03;24.50;99.90
15717;DHT22;7960;50.908;4.204;2023-07-28T13:12:30;24.30;99.80
15717;DHT22;7960;50.908;4.204;2023-07-28T13:14:57;23.90;99.90
15717;DHT22;7960;50.908;4.204;2023-07-28T13:17:24;23.70;99.90
15717;DHT22;7960;50.908;4.204;2023-07-28T13:19:52;23.50;99.90
15717;DHT22;7960;50.908;4.204;2023-07-28T13:22:19;23.30;99.90
15717;DHT22;7960;50.908;4.204;2023-07-28T13:24:46;23.30;99.90
15717;DHT22;7960;50.908;4.204;2023-07-28T13:27:13;23.70;99.90
15717;DHT22;7960;50.908;4.204;2023-07-28T13:29:39;24.30;99.90
15717;DHT22;7960;50.908;4.204;2023-07-28T13:32:16;24.90;99.90
15717;DHT22;7960;50.908;4.204;2023-07-28T13:34:43;25.20;99.00
15717;DHT22;7960;50.908;4.204;2023-07-28T13:37:12;24.90;98.50
15717;DHT22;7960;50.908;4.204;2023-07-28T13:39:38;25.10;99.00
15717;DHT22;7960;50.908;4.204;2023-07-28T13:42:05;25.20;98.60
15717;DHT22;7960;50.908;4.204;2023-07-28T13:44:32;25.20;98.70
15717;DHT22;7960;50.908;4.204;2023-07-28T13:46:59;25.00;98.00
15717;DHT22;7960;50.908;4.204;2023-07-28T13:49:26;24.90;98.60
15717;DHT22;7960;50.908;4.204;2023-07-28T13:51:53;24.90;98.80
15717;DHT22;7960;50.908;4.204;2023-07-28T13:54:21;24.70;98.90
15717;DHT22;7960;50.908;4.204;2023-07-28T13:56:48;24.30;98.60
15717;DHT22;7960;50.908;4.204;2023-07-28T13:59:15;24.10;99.40
15717;DHT22;7960;50.908;4.204;2023-07-28T14:01:42;24.00;99.90
15717;DHT22;7960;50.908;4.204;2023-07-28T14:04:08;23.80;99.90
15717;DHT22;7960;50.908;4.204;2023-07-28T14:06:36;23.60;99.90
15717;DHT22;7960;50.908;4.204;2023-07-28T14:09:02;23.60;99.90
15717;DHT22;7960;50.908;4.204;2023-07-28T14:11:31;23.60;99.90
15717;DHT22;7960;50.908;4.204;2023-07-28T14:13:57;23.70;99.90
15717;DHT22;7960;50.908;4.204;2023-07-28T14:16:24;23.80;99.90
15717;DHT22;7960;50.908;4.204;2023-07-28T14:18:51;23.80;99.90
15717;DHT22;7960;50.908;4.204;2023-07-28T14:21:18;23.60;99.90
15717;DHT22;7960;50.908;4.204;2023-07-28T14:23:45;23.70;99.90
15717;DHT22;7960;50.908;4.204;2023-07-28T14:26:12;23.90;99.90
15717;DHT22;7960;50.908;4.204;2023-07-28T14:28:40;24.30;99.90
15717;DHT22;7960;50.908;4.204;2023-07-28T14:31:07;24.50;99.90
15717;DHT22;7960;50.908;4.204;2023-07-28T14:33:33;25.30;99.50
15717;DHT22;7960;50.908;4.204;2023-07-28T14:36:00;25.80;97.90
15717;DHT22;7960;50.908;4.204;2023-07-28T14:38:27;25.90;97.00
15717;DHT22;7960;50.908;4.204;2023-07-28T14:40:54;25.40;96.60
15717;DHT22;7960;50.908;4.204;2023-07-28T14:43:21;25.40;97.00
15717;DHT22;7960;50.908;4.204;2023-07-28T14:45:50;25.60;97.10
15717;DHT22;7960;50.908;4.204;2023-07-28T14:48:17;25.50;96.90
15717;DHT22;7960;50.908;4.204;2023-07-28T14:50:44;25.40;97.00
15717;DHT22;7960;50.908;4.204;2023-07-28T14:53:35;25.10;97.20
15717;DHT22;7960;50.908;4.204;2023-07-28T14:56:04;24.80;97.70
15717;DHT22;7960;50.908;4.204;2023-07-28T14:58:31;24.90;98.50
15717;DHT22;7960;50.908;4.204;2023-07-28T15:01:00;25.20;98.60
15717;DHT22;7960;50.908;4.204;2023-07-28T15:03:28;25.80;97.90
15717;DHT22;7960;50.908;4.204;2023-07-28T15:05:56;26.20;96.90
15717;DHT22;7960;50.908;4.204;2023-07-28T15:08:23;25.90;96.80
15717;DHT22;7960;50.908;4.204;2023-07-28T15:10:49;25.80;97.20
15717;DHT22;7960;50.908;4.204;2023-07-28T15:13:16;25.60;97.30
15717;DHT22;7960;50.908;4.204;2023-07-28T15:15:43;25.50;96.90
15717;DHT22;7960;50.908;4.204;2023-07-28T15:18:12;25.10;97.40
15717;DHT22;7960;50.908;4.204;2023-07-28T15:20:40;24.90;97.90
15717;DHT22;7960;50.908;4.204;2023-07-28T15:23:07;25.20;98.10
15717;DHT22;7960;50.908;4.204;2023-07-28T15:25:34;25.90;97.60
15717;DHT22;7960;50.908;4.204;2023-07-28T15:28:03;26.50;96.60
15717;DHT22;7960;50.908;4.204;2023-07-28T15:30:29;27.10;95.60
15717;DHT22;7960;50.908;4.204;2023-07-28T15:32:56;27.20;94.90
15717;DHT22;7960;50.908;4.204;2023-07-28T15:35:26;27.40;94.50
15717;DHT22;7960;50.908;4.204;2023-07-28T15:37:52;26.80;93.80
15717;DHT22;7960;50.908;4.204;2023-07-28T15:40:19;26.60;94.60
15717;DHT22;7960;50.908;4.204;2023-07-28T15:42:46;26.20;94.90
15717;DHT22;7960;50.908;4.204;2023-07-28T15:45:13;25.90;95.50
15717;DHT22;7960;50.908;4.204;2023-07-28T15:47:40;25.50;96.00
15717;DHT22;7960;50.908;4.204;2023-07-28T15:50:08;25.20;96.60